createdAt,value
2022-11-24T00:00:42.067Z,0.00
2022-11-24T00:02:01.854Z,0.00
2022-11-24T00:02:44.828Z,0.00
2022-11-24T00:05:17.417Z,0.00
2022-11-24T00:05:45.896Z,0.00
2022-11-24T00:06:30.406Z,0.00
2022-11-24T00:07:37.257Z,0.00
2022-11-24T00:08:38.238Z,0.00
2022-11-24T00:09:44.986Z,0.00
2022-11-24T00:28:45.128Z,0.00
2022-11-24T00:28:49.927Z,0.00
2022-11-24T00:29:49.849Z,0.00
2022-11-24T00:30:49.975Z,0.00
2022-11-24T00:31:49.842Z,0.00
2022-11-24T00:32:49.819Z,0.00
2022-11-24T00:33:49.800Z,0.00
2022-11-24T00:34:49.789Z,0.00
2022-11-24T00:35:49.772Z,0.00
2022-11-24T00:36:49.770Z,0.00
2022-11-24T00:37:49.762Z,0.00
2022-11-24T00:38:49.743Z,0.00
2022-11-24T00:39:49.955Z,0.00
2022-11-24T00:40:49.711Z,0.00
2022-11-24T00:41:49.716Z,0.00
2022-11-24T00:42:49.692Z,0.00
2022-11-24T00:43:49.672Z,0.00
2022-11-24T00:44:49.697Z,0.00
2022-11-24T00:45:49.771Z,0.00
2022-11-24T00:46:49.719Z,0.00
2022-11-24T00:47:49.663Z,0.00
2022-11-24T00:48:49.612Z,0.00
2022-11-24T00:49:49.595Z,0.00
2022-11-24T00:50:49.589Z,0.00
2022-11-24T00:51:49.602Z,0.00
2022-11-24T00:52:49.558Z,0.00
2022-11-24T00:53:49.543Z,0.00
2022-11-24T00:54:50.494Z,0.00
2022-11-24T00:55:49.534Z,0.00
2022-11-24T00:56:49.513Z,0.00
2022-11-24T00:57:49.496Z,0.00
2022-11-24T00:58:49.484Z,0.00
2022-11-24T00:59:49.476Z,0.00
2022-11-24T01:00:49.455Z,0.00
2022-11-24T01:01:49.477Z,0.00
2022-11-24T01:02:49.475Z,0.00
2022-11-24T01:03:49.434Z,0.00
2022-11-24T01:04:49.410Z,0.00
2022-11-24T01:05:49.386Z,0.00
2022-11-24T01:06:49.388Z,0.00
2022-11-24T01:07:49.426Z,0.00
2022-11-24T01:08:49.376Z,0.00
2022-11-24T01:09:49.335Z,0.00
2022-11-24T01:10:49.328Z,0.00
2022-11-24T01:11:49.340Z,0.00
2022-11-24T01:12:49.309Z,0.00
2022-11-24T01:13:49.286Z,0.00
2022-11-24T01:14:49.277Z,0.00
2022-11-24T01:15:49.316Z,0.00
2022-11-24T01:16:49.267Z,0.00
2022-11-24T01:17:49.237Z,0.00
2022-11-24T01:18:49.235Z,0.00
2022-11-24T01:19:49.220Z,0.00
2022-11-24T01:20:49.211Z,0.00
2022-11-24T01:21:49.197Z,0.00
2022-11-24T01:22:49.177Z,0.00
2022-11-24T01:23:49.158Z,0.00
2022-11-24T01:24:49.160Z,0.00
2022-11-24T01:25:49.137Z,0.00
2022-11-24T01:26:49.139Z,0.00
2022-11-24T01:27:49.129Z,0.00
2022-11-24T01:28:49.098Z,0.00
2022-11-24T01:29:49.083Z,0.00
2022-11-24T01:30:49.120Z,0.00
2022-11-24T01:31:49.083Z,0.00
2022-11-24T01:32:49.059Z,0.00
2022-11-24T01:33:49.043Z,0.00
2022-11-24T01:34:49.023Z,0.00
2022-11-24T01:35:49.010Z,0.00
2022-11-24T01:36:49.011Z,0.00
2022-11-24T01:37:48.980Z,0.00
2022-11-24T01:38:48.970Z,0.00
2022-11-24T01:39:48.951Z,0.00
2022-11-24T01:40:48.948Z,0.00
2022-11-24T01:41:48.950Z,0.00
2022-11-24T01:42:48.924Z,0.00
2022-11-24T01:43:48.916Z,0.00
2022-11-24T01:44:48.895Z,0.00
2022-11-24T01:45:48.926Z,0.00
2022-11-24T01:46:48.913Z,0.00
2022-11-24T01:47:48.860Z,0.00
2022-11-24T01:48:48.853Z,0.00
2022-11-24T01:49:48.831Z,0.00
2022-11-24T01:50:48.820Z,0.00
2022-11-24T01:51:48.811Z,0.00
2022-11-24T01:52:48.799Z,0.00
2022-11-24T01:53:48.784Z,0.00
2022-11-24T01:54:48.772Z,0.00
2022-11-24T01:55:48.752Z,0.00
2022-11-24T01:56:48.750Z,0.00
2022-11-24T01:57:48.730Z,0.00
2022-11-24T01:58:48.719Z,0.00
2022-11-24T01:59:48.698Z,0.00
2022-11-24T02:00:48.704Z,0.00
2022-11-24T02:01:48.763Z,0.00
2022-11-24T02:02:48.742Z,0.00
2022-11-24T02:03:48.644Z,0.00
2022-11-24T02:04:48.635Z,0.00
2022-11-24T02:05:48.634Z,0.00
2022-11-24T02:06:48.622Z,0.00
2022-11-24T02:07:48.682Z,0.00
2022-11-24T02:08:48.585Z,0.00
2022-11-24T02:09:48.564Z,0.00
2022-11-24T02:10:48.553Z,0.00
2022-11-24T02:11:48.546Z,0.00
2022-11-24T02:12:48.525Z,0.00
2022-11-24T02:13:48.514Z,0.00
2022-11-24T02:14:48.508Z,0.00
2022-11-24T02:15:48.526Z,0.00
2022-11-24T02:16:48.494Z,0.00
2022-11-24T02:17:48.456Z,0.00
2022-11-24T02:18:48.474Z,0.00
2022-11-24T02:19:48.437Z,0.00
2022-11-24T02:20:48.433Z,0.00
2022-11-24T02:21:48.425Z,0.00
2022-11-24T02:22:48.408Z,0.00
2022-11-24T02:23:48.396Z,0.00
2022-11-24T02:24:48.376Z,0.00
2022-11-24T02:25:48.383Z,0.00
2022-11-24T02:26:48.378Z,0.00
2022-11-24T02:27:53.640Z,0.00
2022-11-24T02:28:49.326Z,0.00
2022-11-24T02:29:48.308Z,0.00
2022-11-24T02:30:48.369Z,0.00
2022-11-24T02:31:48.297Z,0.00
2022-11-24T02:32:48.278Z,0.00
2022-11-24T02:33:48.248Z,0.00
2022-11-24T02:34:48.246Z,0.00
2022-11-24T02:35:48.230Z,0.00
2022-11-24T02:36:48.228Z,0.00
2022-11-24T02:37:48.199Z,0.00
2022-11-24T02:38:48.198Z,0.00
2022-11-24T02:39:48.179Z,0.00
2022-11-24T02:40:48.588Z,0.00
2022-11-24T02:41:48.158Z,0.00
2022-11-24T02:42:48.148Z,0.00
2022-11-24T02:43:48.132Z,0.00
2022-11-24T02:44:48.121Z,0.00
2022-11-24T02:45:48.136Z,0.00
2022-11-24T02:46:48.129Z,0.00
2022-11-24T02:47:48.070Z,0.00
2022-11-24T02:48:48.060Z,0.00
2022-11-24T02:49:48.050Z,0.00
2022-11-24T02:50:48.040Z,0.00
2022-11-24T02:51:48.031Z,0.00
2022-11-24T02:52:48.011Z,0.00
2022-11-24T02:53:48.000Z,0.00
2022-11-24T02:54:47.981Z,0.00
2022-11-24T02:55:47.972Z,0.00
2022-11-24T02:56:47.982Z,0.00
2022-11-24T02:57:47.953Z,0.00
2022-11-24T02:58:47.932Z,0.00
2022-11-24T02:59:47.922Z,0.00
2022-11-24T03:00:48.352Z,0.00
2022-11-24T03:01:47.935Z,0.00
2022-11-24T03:02:47.943Z,0.00
2022-11-24T03:03:47.872Z,0.00
2022-11-24T03:04:47.868Z,0.00
2022-11-24T03:05:47.863Z,0.00
2022-11-24T03:06:47.842Z,0.00
2022-11-24T03:07:47.909Z,0.00
2022-11-24T03:08:47.807Z,0.00
2022-11-24T03:09:47.794Z,0.00
2022-11-24T03:10:47.774Z,0.00
2022-11-24T03:11:47.766Z,0.00
2022-11-24T03:12:47.754Z,0.00
2022-11-24T03:13:47.735Z,0.00
2022-11-24T03:14:47.725Z,0.00
2022-11-24T03:15:47.753Z,0.00
2022-11-24T03:16:47.714Z,0.00
2022-11-24T03:17:47.690Z,0.00
2022-11-24T03:18:47.685Z,0.00
2022-11-24T03:19:47.655Z,0.00
2022-11-24T03:20:47.648Z,0.00
2022-11-24T03:21:47.645Z,0.00
2022-11-24T03:22:47.620Z,0.00
2022-11-24T03:23:47.607Z,0.00
2022-11-24T03:24:47.596Z,0.00
2022-11-24T03:25:47.606Z,0.00
2022-11-24T03:26:47.595Z,0.00
2022-11-24T03:27:47.798Z,0.00
2022-11-24T03:28:47.536Z,0.00
2022-11-24T03:29:47.527Z,0.00
2022-11-24T03:30:47.542Z,0.00
2022-11-24T03:31:47.509Z,0.00
2022-11-24T03:32:47.487Z,0.00
2022-11-24T03:33:47.483Z,0.00
2022-11-24T03:34:47.469Z,0.00
2022-11-24T03:35:47.457Z,0.00
2022-11-24T03:36:47.444Z,0.00
2022-11-24T03:37:47.417Z,0.00
2022-11-24T03:38:47.408Z,0.00
2022-11-24T03:39:47.406Z,0.00
2022-11-24T03:40:47.384Z,0.00
2022-11-24T03:41:47.380Z,0.00
2022-11-24T03:42:47.360Z,0.00
2022-11-24T03:43:47.360Z,0.00
2022-11-24T03:44:47.359Z,0.00
2022-11-24T03:45:47.351Z,0.00
2022-11-24T03:46:47.375Z,0.00
2022-11-24T03:47:47.304Z,0.00
2022-11-24T03:48:47.292Z,0.00
2022-11-24T03:49:47.267Z,0.00
2022-11-24T03:50:47.260Z,0.00
2022-11-24T03:51:47.254Z,0.00
2022-11-24T03:52:47.231Z,0.00
2022-11-24T03:53:47.215Z,0.00
2022-11-24T03:54:47.210Z,0.00
2022-11-24T03:55:47.198Z,0.00
2022-11-24T03:56:47.191Z,0.00
2022-11-24T03:57:47.172Z,0.00
2022-11-24T03:58:47.152Z,0.00
2022-11-24T03:59:47.143Z,0.00
2022-11-24T04:00:47.142Z,0.00
2022-11-24T04:01:47.401Z,0.00
2022-11-24T04:02:47.208Z,0.00
2022-11-24T04:03:47.084Z,0.00
2022-11-24T04:04:49.749Z,0.00
2022-11-24T04:05:47.064Z,0.00
2022-11-24T04:06:47.931Z,0.00
2022-11-24T04:07:47.087Z,0.00
2022-11-24T04:08:47.021Z,0.00
2022-11-24T04:09:47.015Z,0.00
2022-11-24T04:10:46.992Z,0.00
2022-11-24T04:11:46.986Z,0.00
2022-11-24T04:12:46.964Z,0.00
2022-11-24T04:13:46.976Z,0.00
2022-11-24T04:14:46.943Z,0.00
2022-11-24T04:15:46.964Z,0.00
2022-11-24T04:16:46.916Z,0.00
2022-11-24T04:17:46.908Z,0.00
2022-11-24T04:18:46.892Z,0.00
2022-11-24T04:19:46.887Z,0.00
2022-11-24T04:20:46.862Z,0.00
2022-11-24T04:21:46.877Z,0.00
2022-11-24T04:22:47.077Z,0.00
2022-11-24T04:23:46.826Z,0.00
2022-11-24T04:24:46.817Z,0.00
2022-11-24T04:25:46.801Z,0.00
2022-11-24T04:26:47.032Z,0.00
2022-11-24T04:27:46.775Z,0.00
2022-11-24T04:28:46.756Z,0.00
2022-11-24T04:29:46.758Z,0.00
2022-11-24T04:30:46.729Z,0.00
2022-11-24T04:31:46.827Z,0.00
2022-11-24T04:32:46.713Z,0.00
2022-11-24T04:33:46.700Z,0.00
2022-11-24T04:34:46.689Z,0.00
2022-11-24T04:35:46.675Z,0.00
2022-11-24T04:36:46.658Z,0.00
2022-11-24T04:37:46.648Z,0.00
2022-11-24T04:39:19.424Z,0.00
2022-11-24T04:39:48.568Z,0.00
2022-11-24T04:40:46.600Z,0.00
2022-11-24T04:41:46.601Z,0.00
2022-11-24T04:42:46.579Z,0.00
2022-11-24T04:43:46.593Z,0.00
2022-11-24T04:44:46.546Z,0.00
2022-11-24T04:45:46.535Z,0.00
2022-11-24T04:46:46.574Z,0.00
2022-11-24T04:47:46.517Z,0.00
2022-11-24T04:48:46.498Z,0.00
2022-11-24T04:49:46.481Z,0.00
2022-11-24T04:50:46.467Z,0.00
2022-11-24T04:51:46.462Z,0.00
2022-11-24T04:52:46.453Z,0.00
2022-11-24T04:53:46.427Z,0.00
2022-11-24T04:54:46.411Z,0.00
2022-11-24T04:55:46.402Z,0.00
2022-11-24T04:56:46.411Z,0.00
2022-11-24T04:57:46.612Z,0.00
2022-11-24T04:58:46.363Z,0.00
2022-11-24T04:59:46.355Z,0.00
2022-11-24T05:00:46.353Z,0.00
2022-11-24T05:01:46.366Z,0.00
2022-11-24T05:02:46.312Z,0.00
2022-11-24T05:03:46.316Z,0.00
2022-11-24T05:04:46.348Z,0.00
2022-11-24T05:05:46.274Z,0.00
2022-11-24T05:06:46.254Z,0.00
2022-11-24T05:07:46.352Z,0.00
2022-11-24T05:08:46.223Z,0.00
2022-11-24T05:09:58.874Z,0.00
2022-11-24T05:10:47.199Z,0.00
2022-11-24T05:11:46.194Z,0.00
2022-11-24T05:12:51.171Z,0.00
2022-11-24T05:13:47.166Z,0.00
2022-11-24T05:14:46.146Z,0.00
2022-11-24T05:15:46.177Z,0.00
2022-11-24T05:16:46.125Z,0.00
2022-11-24T05:17:46.356Z,0.00
2022-11-24T05:18:46.327Z,0.00
2022-11-24T05:19:46.087Z,0.00
2022-11-24T05:20:46.067Z,0.00
2022-11-24T05:21:46.063Z,0.00
2022-11-24T05:22:46.052Z,0.00
2022-11-24T05:23:46.049Z,0.00
2022-11-24T05:24:46.026Z,0.00
2022-11-24T05:25:47.847Z,0.00
2022-11-24T05:26:46.233Z,0.00
2022-11-24T05:27:45.991Z,0.00
2022-11-24T05:28:45.978Z,0.00
2022-11-24T05:29:45.948Z,0.00
2022-11-24T05:30:45.964Z,0.00
2022-11-24T05:31:45.998Z,0.00
2022-11-24T05:32:45.920Z,0.00
2022-11-24T05:33:45.908Z,0.00
2022-11-24T05:34:45.876Z,0.00
2022-11-24T05:35:45.869Z,0.00
2022-11-24T05:36:45.869Z,0.00
2022-11-24T05:37:45.863Z,0.00
2022-11-24T05:38:45.828Z,0.00
2022-11-24T05:39:45.821Z,0.00
2022-11-24T05:40:45.810Z,0.00
2022-11-24T05:41:45.799Z,0.00
2022-11-24T05:42:48.102Z,0.00
2022-11-24T05:43:45.780Z,0.00
2022-11-24T05:44:45.753Z,0.00
2022-11-24T05:45:45.749Z,0.00
2022-11-24T05:46:45.827Z,0.00
2022-11-24T05:47:45.742Z,0.00
2022-11-24T05:48:47.004Z,0.00
2022-11-24T05:50:07.151Z,0.00
2022-11-24T05:55:58.164Z,0.00
2022-11-24T05:56:02.939Z,0.00
2022-11-24T05:57:02.913Z,0.00
2022-11-24T05:58:02.909Z,0.00
2022-11-24T05:59:08.128Z,0.00
2022-11-24T06:00:03.884Z,0.00
2022-11-24T06:01:02.862Z,0.00
2022-11-24T06:02:03.005Z,0.00
2022-11-24T06:03:02.946Z,0.00
2022-11-24T06:04:02.823Z,0.00
2022-11-24T06:05:02.807Z,0.00
2022-11-24T06:06:02.809Z,0.00
2022-11-24T06:07:02.786Z,0.00
2022-11-24T06:08:02.773Z,0.00
2022-11-24T06:09:02.753Z,0.00
2022-11-24T06:10:03.555Z,0.00
2022-11-24T06:11:02.734Z,0.00
2022-11-24T06:12:02.750Z,0.00
2022-11-24T06:13:02.713Z,0.00
2022-11-24T06:14:05.770Z,0.00
2022-11-24T06:15:03.675Z,0.00
2022-11-24T06:16:02.764Z,0.00
2022-11-24T06:17:02.655Z,0.00
2022-11-24T06:18:02.645Z,0.00
2022-11-24T06:19:02.628Z,0.00
2022-11-24T06:20:02.624Z,0.00
2022-11-24T06:21:10.707Z,0.00
2022-11-24T06:22:03.597Z,0.00
2022-11-24T06:23:02.576Z,0.00
2022-11-24T06:24:02.565Z,0.00
2022-11-24T06:25:02.805Z,0.00
2022-11-24T06:26:02.547Z,0.00
2022-11-24T06:27:02.529Z,0.00
2022-11-24T06:28:02.506Z,0.00
2022-11-24T06:29:02.492Z,0.00
2022-11-24T06:30:02.518Z,0.00
2022-11-24T06:31:02.479Z,0.00
2022-11-24T06:32:02.556Z,0.00
2022-11-24T06:33:02.449Z,0.00
2022-11-24T06:34:02.438Z,0.00
2022-11-24T06:35:02.421Z,0.00
2022-11-24T06:36:02.426Z,0.00
2022-11-24T06:37:02.398Z,0.00
2022-11-24T06:38:02.396Z,0.00
2022-11-24T06:39:02.378Z,0.00
2022-11-24T06:40:02.381Z,0.00
2022-11-24T06:41:02.339Z,0.00
2022-11-24T06:42:02.345Z,5.62
2022-11-24T06:43:03.260Z,5.62
2022-11-24T06:44:02.309Z,5.62
2022-11-24T06:45:07.393Z,5.62
2022-11-24T06:46:03.349Z,5.62
2022-11-24T06:47:02.280Z,5.62
2022-11-24T06:48:02.248Z,5.62
2022-11-24T06:49:02.230Z,5.62
2022-11-24T06:50:02.221Z,5.62
2022-11-24T06:51:02.211Z,5.62
2022-11-24T06:52:02.219Z,5.62
2022-11-24T06:53:02.179Z,11.25
2022-11-24T06:54:02.173Z,11.25
2022-11-24T06:55:02.164Z,11.25
2022-11-24T06:56:02.154Z,11.25
2022-11-24T06:57:02.132Z,11.25
2022-11-24T06:58:02.122Z,11.25
2022-11-24T06:59:02.102Z,11.25
2022-11-24T07:00:02.115Z,11.25
2022-11-24T07:01:02.182Z,16.88
2022-11-24T07:02:02.200Z,16.88
2022-11-24T07:03:02.078Z,16.88
2022-11-24T07:04:02.035Z,16.88
2022-11-24T07:05:02.992Z,16.88
2022-11-24T07:06:02.016Z,22.50
2022-11-24T07:07:02.005Z,22.50
2022-11-24T07:08:01.987Z,22.50
2022-11-24T07:09:01.968Z,22.50
2022-11-24T07:10:01.956Z,22.50
2022-11-24T07:11:01.936Z,22.50
2022-11-24T07:12:01.937Z,22.50
2022-11-24T07:13:01.914Z,22.50
2022-11-24T07:14:01.905Z,22.50
2022-11-24T07:15:01.889Z,22.50
2022-11-24T07:16:01.900Z,22.50
2022-11-24T07:17:01.865Z,22.50
2022-11-24T07:18:01.847Z,22.50
2022-11-24T07:19:01.844Z,22.50
2022-11-24T07:20:01.832Z,22.50
2022-11-24T07:21:01.809Z,28.12
2022-11-24T07:22:01.807Z,28.12
2022-11-24T07:23:01.788Z,28.12
2022-11-24T07:24:01.781Z,28.12
2022-11-24T07:25:01.769Z,28.12
2022-11-24T07:26:06.530Z,28.12
2022-11-24T07:27:02.743Z,28.12
2022-11-24T07:28:01.713Z,28.12
2022-11-24T07:29:01.705Z,28.12
2022-11-24T07:30:01.691Z,33.75
2022-11-24T07:31:01.680Z,33.75
2022-11-24T07:32:05.422Z,33.75
2022-11-24T07:33:01.649Z,33.75
2022-11-24T07:34:01.644Z,33.75
2022-11-24T07:35:01.628Z,33.75
2022-11-24T07:36:01.611Z,33.75
2022-11-24T07:37:01.611Z,33.75
2022-11-24T07:38:01.592Z,33.75
2022-11-24T07:39:01.571Z,33.75
2022-11-24T07:40:01.561Z,33.75
2022-11-24T07:41:01.551Z,33.75
2022-11-24T07:42:01.538Z,39.38
2022-11-24T07:43:01.521Z,39.38
2022-11-24T07:44:01.602Z,39.38
2022-11-24T07:45:01.504Z,39.38
2022-11-24T07:46:01.510Z,45.00
2022-11-24T07:47:01.478Z,45.00
2022-11-24T07:48:01.482Z,45.00
2022-11-24T07:49:01.452Z,50.62
2022-11-24T07:50:01.434Z,50.62
2022-11-24T07:51:01.415Z,56.25
2022-11-24T07:52:01.412Z,56.25
2022-11-24T07:53:01.385Z,56.25
2022-11-24T07:54:01.381Z,56.25
2022-11-24T07:55:01.364Z,61.88
2022-11-24T07:56:01.345Z,61.88
2022-11-24T07:57:01.349Z,73.12
2022-11-24T07:58:01.332Z,84.38
2022-11-24T07:59:01.330Z,95.62
2022-11-24T08:00:01.300Z,101.25
2022-11-24T08:01:01.272Z,101.25
2022-11-24T08:02:01.339Z,101.25
2022-11-24T08:03:01.260Z,95.62
2022-11-24T08:04:01.304Z,90.00
2022-11-24T08:05:01.227Z,78.75
2022-11-24T08:06:22.723Z,73.12
2022-11-24T08:07:02.207Z,61.88
2022-11-24T08:08:01.220Z,61.88
2022-11-24T08:09:01.190Z,61.88
2022-11-24T08:10:01.186Z,61.88
2022-11-24T08:11:01.159Z,67.50
2022-11-24T08:12:01.162Z,73.12
2022-11-24T08:13:01.108Z,78.75
2022-11-24T08:14:01.137Z,84.38
2022-11-24T08:15:03.301Z,84.38
2022-11-24T08:16:01.077Z,84.38
2022-11-24T08:17:01.124Z,90.00
2022-11-24T08:18:01.048Z,95.62
2022-11-24T08:19:01.033Z,101.25
2022-11-24T08:20:01.030Z,101.25
2022-11-24T08:21:01.018Z,101.25
2022-11-24T08:22:01.016Z,95.62
2022-11-24T08:23:00.982Z,90.00
2022-11-24T08:24:00.970Z,84.38
2022-11-24T08:25:00.964Z,78.75
2022-11-24T08:26:00.951Z,78.75
2022-11-24T08:27:00.941Z,84.38
2022-11-24T08:28:00.916Z,95.62
2022-11-24T08:29:00.903Z,90.00
2022-11-24T08:30:00.887Z,84.38
2022-11-24T08:31:00.879Z,73.12
2022-11-24T08:32:00.927Z,73.12
2022-11-24T08:33:00.862Z,67.50
2022-11-24T08:34:00.884Z,67.50
2022-11-24T08:35:13.388Z,73.12
2022-11-24T08:36:01.815Z,78.75
2022-11-24T08:37:00.812Z,78.75
2022-11-24T08:38:04.643Z,84.38
2022-11-24T08:39:00.768Z,78.75
2022-11-24T08:40:00.754Z,78.75
2022-11-24T08:41:00.761Z,84.38
2022-11-24T08:42:00.731Z,84.38
2022-11-24T08:43:00.709Z,78.75
2022-11-24T08:44:00.693Z,73.12
2022-11-24T08:45:13.061Z,73.12
2022-11-24T08:46:01.717Z,78.75
2022-11-24T08:47:00.664Z,84.38
2022-11-24T08:48:00.645Z,78.75
2022-11-24T08:49:00.636Z,78.75
2022-11-24T08:50:00.617Z,73.12
2022-11-24T08:51:00.600Z,73.12
2022-11-24T08:52:00.600Z,73.12
2022-11-24T08:53:00.572Z,73.12
2022-11-24T08:54:00.568Z,73.12
2022-11-24T08:55:00.555Z,73.12
2022-11-24T08:56:00.537Z,73.12
2022-11-24T08:57:00.526Z,73.12
2022-11-24T08:58:00.508Z,73.12
2022-11-24T08:59:00.623Z,78.75
2022-11-24T09:00:00.477Z,84.38
2022-11-24T09:01:00.504Z,84.38
2022-11-24T09:02:00.504Z,90.00
2022-11-24T09:03:00.435Z,90.00
2022-11-24T09:04:00.483Z,95.62
2022-11-24T09:05:00.413Z,95.62
2022-11-24T09:06:00.403Z,101.25
2022-11-24T09:07:00.389Z,101.25
2022-11-24T09:08:00.371Z,106.88
2022-11-24T09:09:00.368Z,106.88
2022-11-24T09:10:00.346Z,106.88
2022-11-24T09:11:00.344Z,106.88
2022-11-24T09:12:00.319Z,112.50
2022-11-24T09:13:00.311Z,112.50
2022-11-24T09:14:00.291Z,112.50
2022-11-24T09:15:00.290Z,118.12
2022-11-24T09:16:00.261Z,118.12
2022-11-24T09:17:00.336Z,123.75
2022-11-24T09:18:00.231Z,129.38
2022-11-24T09:19:00.222Z,129.38
2022-11-24T09:20:00.213Z,135.00
2022-11-24T09:21:00.219Z,140.62
2022-11-24T09:22:00.193Z,140.62
2022-11-24T09:23:00.183Z,140.62
2022-11-24T09:24:00.171Z,140.62
2022-11-24T09:25:00.150Z,135.00
2022-11-24T09:26:00.123Z,135.00
2022-11-24T09:27:00.124Z,135.00
2022-11-24T09:28:00.131Z,129.38
2022-11-24T09:29:00.107Z,129.38
2022-11-24T09:30:00.068Z,129.38
2022-11-24T09:31:00.182Z,123.75
2022-11-24T09:32:06.331Z,123.75
2022-11-24T09:33:01.044Z,123.75
2022-11-24T09:34:00.016Z,123.75
2022-11-24T09:35:00.027Z,123.75
2022-11-24T09:35:59.994Z,123.75
2022-11-24T09:36:59.995Z,123.75
2022-11-24T09:37:59.963Z,123.75
2022-11-24T09:38:59.956Z,123.75
2022-11-24T09:39:59.935Z,118.12
2022-11-24T09:40:59.926Z,112.50
2022-11-24T09:41:59.906Z,106.88
2022-11-24T09:42:59.893Z,101.25
2022-11-24T09:43:59.880Z,101.25
2022-11-24T09:44:59.871Z,101.25
2022-11-24T09:46:07.052Z,101.25
2022-11-24T09:47:00.917Z,101.25
2022-11-24T09:47:59.831Z,101.25
2022-11-24T09:48:59.825Z,101.25
2022-11-24T09:49:59.798Z,101.25
2022-11-24T09:50:59.790Z,101.25
2022-11-24T09:51:59.779Z,101.25
2022-11-24T09:52:59.767Z,101.25
2022-11-24T09:53:59.739Z,101.25
2022-11-24T09:54:59.739Z,101.25
2022-11-24T09:55:59.719Z,101.25
2022-11-24T09:56:59.711Z,101.25
2022-11-24T09:57:59.690Z,95.62
2022-11-24T09:58:59.680Z,101.25
2022-11-24T09:59:59.661Z,101.25
2022-11-24T10:00:59.736Z,106.88
2022-11-24T10:01:59.684Z,118.12
2022-11-24T10:02:59.630Z,118.12
2022-11-24T10:04:05.534Z,123.75
2022-11-24T10:05:00.648Z,129.38
2022-11-24T10:05:59.572Z,129.38
2022-11-24T10:06:59.568Z,135.00
2022-11-24T10:07:59.598Z,135.00
2022-11-24T10:08:59.560Z,140.62
2022-11-24T10:09:59.524Z,140.62
2022-11-24T10:10:59.510Z,140.62
2022-11-24T10:11:59.512Z,135.00
2022-11-24T10:12:59.487Z,129.38
2022-11-24T10:13:59.504Z,123.75
2022-11-24T10:14:59.488Z,118.12
2022-11-24T10:15:59.508Z,112.50
2022-11-24T10:16:59.444Z,101.25
2022-11-24T10:17:59.417Z,95.62
2022-11-24T10:18:59.416Z,95.62
2022-11-24T10:19:59.385Z,95.62
2022-11-24T10:20:59.379Z,95.62
2022-11-24T10:21:59.374Z,95.62
2022-11-24T10:22:59.345Z,95.62
2022-11-24T10:23:59.348Z,95.62
2022-11-24T10:24:59.324Z,101.25
2022-11-24T10:25:59.307Z,101.25
2022-11-24T10:26:59.296Z,106.88
2022-11-24T10:27:59.277Z,112.50
2022-11-24T10:28:59.296Z,118.12
2022-11-24T10:29:59.255Z,118.12
2022-11-24T10:30:59.265Z,123.75
2022-11-24T10:31:59.235Z,129.38
2022-11-24T10:32:59.208Z,129.38
2022-11-24T10:33:59.213Z,129.38
2022-11-24T10:34:59.189Z,129.38
2022-11-24T10:35:59.164Z,123.75
2022-11-24T10:36:59.161Z,123.75
2022-11-24T10:37:59.146Z,118.12
2022-11-24T10:38:59.139Z,118.12
2022-11-24T10:40:00.456Z,123.75
2022-11-24T10:40:59.234Z,123.75
2022-11-24T10:41:59.090Z,123.75
2022-11-24T10:42:59.078Z,123.75
2022-11-24T10:43:59.061Z,123.75
2022-11-24T10:44:59.051Z,118.12
2022-11-24T10:45:59.129Z,118.12
2022-11-24T10:46:59.077Z,106.88
2022-11-24T10:47:59.965Z,101.25
2022-11-24T10:48:59.001Z,95.62
2022-11-24T10:49:58.982Z,95.62
2022-11-24T10:50:58.971Z,95.62
2022-11-24T10:51:58.963Z,101.25
2022-11-24T10:52:58.942Z,101.25
2022-11-24T10:53:59.876Z,112.50
2022-11-24T10:54:58.920Z,118.12
2022-11-24T10:55:58.896Z,123.75
2022-11-24T10:56:58.895Z,123.75
2022-11-24T10:57:58.865Z,135.00
2022-11-24T10:58:58.883Z,140.62
2022-11-24T10:59:58.895Z,146.25
2022-11-24T11:00:59.829Z,157.50
2022-11-24T11:01:58.899Z,163.12
2022-11-24T11:02:58.877Z,163.12
2022-11-24T11:03:58.817Z,168.75
2022-11-24T11:04:58.786Z,174.38
2022-11-24T11:05:58.777Z,174.38
2022-11-24T11:06:58.779Z,168.75
2022-11-24T11:08:04.035Z,168.75
2022-11-24T11:08:59.728Z,163.12
2022-11-24T11:09:58.717Z,163.12
2022-11-24T11:10:58.718Z,163.12
2022-11-24T11:12:01.873Z,163.12
2022-11-24T11:12:59.675Z,168.75
2022-11-24T11:14:03.944Z,168.75
2022-11-24T11:14:59.657Z,168.75
2022-11-24T11:15:58.741Z,168.75
2022-11-24T11:16:58.621Z,168.75
2022-11-24T11:17:58.622Z,168.75
2022-11-24T11:18:58.589Z,168.75
2022-11-24T11:20:02.366Z,163.12
2022-11-24T11:20:58.561Z,157.50
2022-11-24T11:21:58.550Z,146.25
2022-11-24T11:22:58.542Z,140.62
2022-11-24T11:23:58.521Z,135.00
2022-11-24T11:24:58.530Z,140.62
2022-11-24T11:25:58.491Z,140.62
2022-11-24T11:26:58.495Z,146.25
2022-11-24T11:27:58.481Z,157.50
2022-11-24T11:31:15.439Z,168.75
2022-11-24T11:31:18.101Z,180.00
2022-11-24T11:34:10.861Z,180.00
2022-11-24T11:34:59.379Z,174.38
2022-11-24T11:35:58.364Z,168.75
2022-11-24T11:36:58.363Z,163.12
2022-11-24T11:37:58.335Z,157.50
2022-11-24T11:38:58.325Z,157.50
2022-11-24T11:39:59.269Z,157.50
2022-11-24T11:40:58.295Z,163.12
2022-11-24T11:41:58.295Z,168.75
2022-11-24T11:43:03.069Z,168.75
2022-11-24T11:43:59.256Z,174.38
2022-11-24T11:44:58.245Z,185.62
2022-11-24T11:45:58.344Z,191.25
2022-11-24T11:46:58.282Z,196.88
2022-11-24T11:47:58.195Z,202.50
2022-11-24T11:48:58.188Z,202.50
2022-11-24T11:49:58.251Z,196.88
2022-11-24T11:51:59.150Z,180.00
2022-11-24T11:52:58.137Z,174.38
2022-11-24T11:53:58.145Z,174.38
2022-11-24T11:54:58.140Z,168.75
2022-11-24T11:55:59.037Z,163.12
2022-11-24T11:56:58.096Z,157.50
2022-11-24T11:57:58.059Z,157.50
2022-11-24T11:58:58.049Z,151.88
2022-11-24T11:59:58.039Z,151.88
2022-11-24T12:00:58.026Z,146.25
2022-11-24T12:01:58.020Z,146.25
2022-11-24T12:02:58.129Z,146.25
2022-11-24T12:03:58.180Z,146.25
2022-11-24T12:04:57.981Z,146.25
2022-11-24T12:05:57.955Z,146.25
2022-11-24T12:06:57.961Z,146.25
2022-11-24T12:07:58.011Z,140.62
2022-11-24T12:09:19.112Z,129.38
2022-11-24T12:09:58.928Z,123.75
2022-11-24T12:10:57.899Z,123.75
2022-11-24T12:11:57.891Z,123.75
2022-11-24T12:12:57.872Z,129.38
2022-11-24T12:13:57.853Z,135.00
2022-11-24T12:14:57.843Z,140.62
2022-11-24T12:15:57.913Z,140.62
2022-11-24T12:16:57.825Z,146.25
2022-11-24T12:17:57.803Z,151.88
2022-11-24T12:18:58.673Z,151.88
2022-11-24T12:19:57.764Z,151.88
2022-11-24T12:20:57.765Z,157.50
2022-11-24T12:21:57.744Z,157.50
2022-11-24T12:22:57.734Z,157.50
2022-11-24T12:23:57.726Z,151.88
2022-11-24T12:24:57.787Z,151.88
2022-11-24T12:25:57.686Z,146.25
2022-11-24T12:26:57.686Z,140.62
2022-11-24T12:27:57.665Z,140.62
2022-11-24T12:28:57.656Z,135.00
2022-11-24T12:29:57.641Z,135.00
2022-11-24T12:30:57.740Z,135.00
2022-11-24T12:31:57.648Z,135.00
2022-11-24T12:32:57.607Z,129.38
2022-11-24T12:34:01.141Z,123.75
2022-11-24T12:34:57.580Z,112.50
2022-11-24T12:35:58.509Z,112.50
2022-11-24T12:36:58.508Z,106.88
2022-11-24T12:37:57.539Z,106.88
2022-11-24T12:38:57.520Z,101.25
2022-11-24T12:39:57.502Z,95.62
2022-11-24T12:41:18.291Z,95.62
2022-11-24T12:41:58.492Z,90.00
2022-11-24T12:42:57.469Z,84.38
2022-11-24T12:43:57.461Z,78.75
2022-11-24T12:44:57.433Z,67.50
2022-11-24T12:45:57.430Z,67.50
2022-11-24T12:46:57.472Z,67.50
2022-11-24T12:47:57.411Z,73.12
2022-11-24T12:48:58.340Z,84.38
2022-11-24T12:49:57.374Z,90.00
2022-11-24T12:50:57.614Z,84.38
2022-11-24T12:51:57.353Z,78.75
2022-11-24T12:52:59.009Z,73.12
2022-11-24T12:53:57.326Z,78.75
2022-11-24T12:54:58.260Z,78.75
2022-11-24T12:55:57.295Z,84.38
2022-11-24T12:56:57.292Z,90.00
2022-11-24T12:57:57.282Z,95.62
2022-11-24T12:58:58.225Z,95.62
2022-11-24T12:59:57.239Z,95.62
2022-11-24T13:00:57.224Z,101.25
2022-11-24T13:01:58.249Z,101.25
2022-11-24T13:02:58.324Z,101.25
2022-11-24T13:03:58.146Z,101.25
2022-11-24T13:04:58.124Z,106.88
2022-11-24T13:05:57.156Z,112.50
2022-11-24T13:06:57.137Z,118.12
2022-11-24T13:07:57.213Z,123.75
2022-11-24T13:08:57.117Z,129.38
2022-11-24T13:09:57.103Z,129.38
2022-11-24T13:10:57.962Z,129.38
2022-11-24T13:12:02.151Z,129.38
2022-11-24T13:12:58.076Z,129.38
2022-11-24T13:13:58.005Z,129.38
2022-11-24T13:14:57.995Z,129.38
2022-11-24T13:17:27.901Z,129.38
2022-11-24T13:18:08.596Z,129.38
2022-11-24T13:18:58.017Z,135.00
2022-11-24T13:19:57.936Z,129.38
2022-11-24T13:20:56.958Z,129.38
2022-11-24T13:21:56.954Z,129.38
2022-11-24T13:22:56.939Z,123.75
2022-11-24T13:23:56.930Z,118.12
2022-11-24T13:24:56.921Z,112.50